Time;durP1;ratioP1;P1;durP2;ratioP2;P2;SDS_P1;SDS_P2;PMS_P1;PMS_P2;Temp;Humidity;BMP_temperature;BMP_pressure;BME280_temperature;BME280_humidity;BME280_pressure;Samples;Min_cycle;Max_cycle;Signal;HPM_P1;HPM_P2
2021/04/09 00:00:08;;;;;;;8.48;1.75;;;3.40;99.90;;;;;;4981406;28;20135;-63
2021/04/09 00:02:41;;;;;;;7.97;1.70;;;3.50;99.90;;;;;;4985247;28;20437;-64
2021/04/09 00:05:10;;;;;;;3.28;1.40;;;3.50;99.90;;;;;;4983455;28;20078;-64
2021/04/09 00:07:37;;;;;;;4.18;1.83;;;3.50;99.90;;;;;;4982934;28;20068;-66
2021/04/09 00:10:08;;;;;;;14.82;2.22;;;3.50;99.90;;;;;;4981808;28;20065;-63
2021/04/09 00:12:36;;;;;;;6.65;2.28;;;3.60;99.90;;;;;;4982143;28;20046;-65
2021/04/09 00:15:04;;;;;;;8.00;3.05;;;3.60;99.90;;;;;;4980364;28;20109;-65
2021/04/09 00:17:30;;;;;;;5.55;2.00;;;3.60;99.90;;;;;;4982152;28;20054;-70
2021/04/09 00:19:57;;;;;;;5.97;2.92;;;3.70;99.90;;;;;;4982320;28;20112;-66
2021/04/09 00:22:23;;;;;;;3.78;2.60;;;3.70;99.90;;;;;;4983794;28;20069;-63
2021/04/09 00:24:50;;;;;;;8.02;2.42;;;3.70;99.90;;;;;;4980301;28;20160;-65
2021/04/09 00:27:17;;;;;;;7.75;2.65;;;3.80;99.90;;;;;;4985314;28;20134;-65
2021/04/09 00:29:44;;;;;;;6.63;2.78;;;3.80;99.90;;;;;;4983231;28;20069;-65
2021/04/09 00:32:11;;;;;;;6.57;2.97;;;3.80;99.90;;;;;;4983074;28;20058;-64
2021/04/09 00:34:38;;;;;;;7.93;3.03;;;3.70;99.90;;;;;;4980722;28;20096;-65
2021/04/09 00:37:05;;;;;;;6.93;3.78;;;3.80;99.90;;;;;;4984817;28;20050;-65
2021/04/09 00:39:31;;;;;;;6.22;3.83;;;3.70;99.90;;;;;;4982017;28;20109;-66
2021/04/09 00:41:58;;;;;;;6.57;3.35;;;3.80;99.90;;;;;;4984172;28;20050;-65
2021/04/09 00:44:24;;;;;;;7.95;3.45;;;3.80;99.90;;;;;;4980466;28;20054;-64
2021/04/09 00:46:51;;;;;;;7.97;5.07;;;3.80;99.90;;;;;;4982872;28;20109;-63
2021/04/09 00:49:17;;;;;;;10.45;3.97;;;3.80;99.90;;;;;;4980748;28;20176;-66
2021/04/09 00:51:44;;;;;;;8.60;4.00;;;3.80;99.90;;;;;;4982552;28;20054;-64
2021/04/09 00:54:11;;;;;;;10.15;3.58;;;3.80;99.90;;;;;;4977876;28;20043;-64
2021/04/09 00:56:38;;;;;;;10.30;4.13;;;3.80;99.90;;;;;;4983521;28;20050;-64
2021/04/09 00:59:05;;;;;;;4.55;3.35;;;3.80;99.90;;;;;;4984169;28;20050;-66
2021/04/09 01:01:31;;;;;;;5.93;4.30;;;3.80;99.90;;;;;;4984206;28;20046;-67
2021/04/09 01:03:58;;;;;;;7.20;4.45;;;3.80;99.90;;;;;;4981360;28;20389;-67
2021/04/09 01:06:25;;;;;;;11.32;4.50;;;3.80;99.90;;;;;;4982107;28;20492;-64
2021/04/09 01:08:52;;;;;;;8.98;4.43;;;3.80;99.90;;;;;;4982445;28;20125;-66
2021/04/09 01:11:19;;;;;;;10.48;5.10;;;3.80;99.90;;;;;;4981876;28;20074;-69
2021/04/09 01:13:46;;;;;;;12.20;6.03;;;3.80;99.90;;;;;;4983048;28;20050;-69
2021/04/09 01:16:44;;;;;;;9.27;5.07;;;3.80;99.90;;;;;;4979458;28;20104;-68
2021/04/09 01:19:24;;;;;;;12.70;5.65;;;3.80;99.90;;;;;;4980104;28;20070;-65
2021/04/09 01:22:02;;;;;;;16.83;5.82;;;3.80;99.90;;;;;;4981374;28;20426;-64
2021/04/09 01:25:06;;;;;;;11.00;6.20;;;3.70;99.90;;;;;;4978470;28;20480;-64
2021/04/09 01:27:35;;;;;;;11.55;6.53;;;3.70;99.90;;;;;;4983734;28;20148;-65
2021/04/09 01:30:02;;;;;;;14.52;6.32;;;3.70;99.90;;;;;;4981151;28;20702;-64
2021/04/09 01:32:30;;;;;;;10.52;6.25;;;3.70;99.90;;;;;;4980546;28;20544;-63
2021/04/09 01:35:03;;;;;;;20.70;7.38;;;3.70;99.90;;;;;;4981937;28;20492;-65
2021/04/09 01:37:42;;;;;;;15.52;8.57;;;3.70;99.90;;;;;;4983280;28;20050;-67
2021/04/09 01:40:17;;;;;;;15.90;7.65;;;3.70;99.90;;;;;;4978728;28;20162;-63
2021/04/09 01:42:47;;;;;;;17.02;8.50;;;3.70;99.90;;;;;;4982853;28;20574;-69
2021/04/09 01:45:15;;;;;;;10.70;8.57;;;3.70;99.90;;;;;;4981014;28;20069;-66
2021/04/09 01:47:42;;;;;;;14.25;9.57;;;3.70;99.90;;;;;;4981269;28;20074;-65
2021/04/09 01:50:13;;;;;;;13.07;8.27;;;3.70;99.90;;;;;;4975693;28;20404;-69
2021/04/09 01:52:41;;;;;;;;;;;3.70;99.90;;;;;;4979917;28;20137;-67
2021/04/09 01:55:09;;;;;;;13.68;10.00;;;3.70;99.90;;;;;;4979593;28;20319;-68
2021/04/09 01:57:38;;;;;;;15.05;10.38;;;3.70;99.90;;;;;;4980345;28;20046;-66
2021/04/09 02:00:09;;;;;;;17.17;9.18;;;3.70;99.90;;;;;;4980588;28;20463;-66
2021/04/09 02:02:38;;;;;;;20.55;9.50;;;3.80;99.90;;;;;;4980631;28;20112;-69
2021/04/09 02:05:06;;;;;;;13.85;9.18;;;3.80;99.90;;;;;;4981139;28;20054;-66
2021/04/09 02:07:33;;;;;;;17.30;10.63;;;3.80;99.90;;;;;;4982301;28;20081;-65
2021/04/09 02:10:03;;;;;;;16.60;9.93;;;3.90;99.90;;;;;;4979540;28;20066;-65
2021/04/09 02:12:30;;;;;;;15.23;9.52;;;3.90;99.90;;;;;;4979299;28;20117;-64
2021/04/09 02:14:57;;;;;;;12.93;9.35;;;3.90;99.90;;;;;;4981447;28;20085;-65
2021/04/09 02:17:24;;;;;;;15.65;9.70;;;3.90;99.90;;;;;;4981671;28;20112;-68
2021/04/09 02:19:50;;;;;;;15.10;10.30;;;3.90;99.90;;;;;;4979658;28;20046;-66
2021/04/09 02:22:18;;;;;;;18.85;9.52;;;4.00;99.90;;;;;;4979729;28;20054;-66
2021/04/09 02:24:48;;;;;;;21.55;10.48;;;4.00;99.90;;;;;;4982274;28;20078;-63
2021/04/09 02:27:15;;;;;;;;;;;4.00;99.90;;;;;;4981776;28;20050;-65
2021/04/09 02:29:43;;;;;;;16.63;10.88;;;4.00;99.90;;;;;;4981685;28;19933;-66
2021/04/09 02:32:10;;;;;;;16.80;10.93;;;4.00;99.90;;;;;;4979828;28;20157;-67
2021/04/09 02:34:38;;;;;;;20.02;11.35;;;4.00;99.90;;;;;;4982474;28;20077;-67
2021/04/09 02:37:06;;;;;;;24.65;11.18;;;4.00;99.90;;;;;;4980230;28;20117;-67
2021/04/09 02:39:35;;;;;;;14.90;10.18;;;4.00;99.90;;;;;;4984424;28;20054;-64
2021/04/09 02:42:07;;;;;;;17.92;11.27;;;4.10;99.90;;;;;;4982798;28;20515;-66
2021/04/09 02:44:34;;;;;;;16.83;11.23;;;4.10;99.90;;;;;;4985628;28;20051;-65
2021/04/09 02:47:06;;;;;;;19.42;12.05;;;4.10;99.90;;;;;;4983600;28;20137;-69
2021/04/09 02:49:47;;;;;;;19.15;11.40;;;4.10;99.90;;;;;;4985575;28;20047;-66
2021/04/09 02:52:25;;;;;;;22.25;11.88;;;4.10;99.90;;;;;;4981991;28;20447;-64
2021/04/09 02:54:53;;;;;;;20.63;12.15;;;4.10;99.90;;;;;;4986008;28;20050;-65
2021/04/09 02:57:22;;;;;;;20.92;12.50;;;4.10;99.90;;;;;;4984463;28;20054;-65
2021/04/09 02:59:51;;;;;;;18.20;12.15;;;4.10;99.90;;;;;;4985548;28;20050;-67
2021/04/09 03:02:17;;;;;;;22.25;12.93;;;4.10;99.90;;;;;;4982780;28;20136;-66
2021/04/09 03:04:45;;;;;;;20.27;12.27;;;4.20;99.90;;;;;;4986738;28;20054;-70
2021/04/09 03:07:13;;;;;;;17.27;12.77;;;4.20;99.90;;;;;;4985143;28;20138;-65
2021/04/09 03:09:40;;;;;;;18.70;12.52;;;4.10;99.90;;;;;;4986861;28;20045;-66
2021/04/09 03:12:20;;;;;;;20.27;14.70;;;4.10;99.90;;;;;;4983286;28;20061;-69
2021/04/09 03:14:49;;;;;;;20.65;14.20;;;4.20;99.90;;;;;;4985505;28;20058;-65
2021/04/09 03:17:26;;;;;;;18.80;12.82;;;4.20;99.90;;;;;;4984656;28;20216;-63
2021/04/09 03:19:53;;;;;;;21.20;11.88;;;4.20;99.90;;;;;;4984925;28;20129;-66
2021/04/09 03:22:19;;;;;;;19.77;13.00;;;4.20;99.90;;;;;;4982653;28;20077;-66
2021/04/09 03:24:46;;;;;;;20.67;12.75;;;4.20;99.90;;;;;;4983835;28;20057;-67
2021/04/09 03:27:15;;;;;;;14.23;10.95;;;4.20;99.90;;;;;;4983935;28;20038;-64
2021/04/09 03:29:43;;;;;;;18.63;13.07;;;4.20;99.90;;;;;;4984862;28;20054;-65
2021/04/09 03:32:12;;;;;;;26.35;13.23;;;4.20;99.90;;;;;;4982823;28;20112;-67
2021/04/09 03:34:40;;;;;;;16.35;12.60;;;4.20;99.90;;;;;;4984799;28;20065;-64
2021/04/09 03:37:07;;;;;;;19.63;12.65;;;4.20;99.90;;;;;;4998636;28;20517;-64
2021/04/09 03:39:34;;;;;;;17.67;12.18;;;4.20;99.90;;;;;;4983974;28;20050;-65
2021/04/09 03:42:04;;;;;;;18.95;13.20;;;4.20;99.90;;;;;;4983887;28;20358;-65
2021/04/09 03:44:31;;;;;;;19.65;12.77;;;4.20;99.90;;;;;;4982270;28;20050;-66
2021/04/09 03:46:57;;;;;;;19.30;13.75;;;4.20;99.90;;;;;;4983352;28;20068;-68
2021/04/09 03:49:24;;;;;;;18.88;14.48;;;4.20;99.90;;;;;;4982308;28;20455;-64
2021/04/09 03:51:51;;;;;;;20.42;14.18;;;4.20;99.90;;;;;;4985435;28;20058;-63
2021/04/09 03:54:17;;;;;;;22.58;15.18;;;4.20;99.90;;;;;;4981834;28;20586;-66
2021/04/09 03:56:44;;;;;;;22.88;15.07;;;4.20;99.90;;;;;;4985506;28;20409;-64
2021/04/09 03:59:11;;;;;;;22.80;15.15;;;4.20;99.90;;;;;;4983552;28;20046;-64
2021/04/09 04:01:37;;;;;;;30.63;18.02;;;4.20;99.90;;;;;;4983496;28;20053;-67
2021/04/09 04:04:04;;;;;;;23.13;16.90;;;4.20;99.90;;;;;;4982933;28;20065;-64
2021/04/09 04:06:31;;;;;;;20.98;17.58;;;4.20;99.90;;;;;;4981747;28;20472;-65
2021/04/09 04:08:57;;;;;;;24.27;18.98;;;4.20;99.90;;;;;;4981547;28;20681;-65
2021/04/09 04:11:24;;;;;;;27.95;18.13;;;4.20;99.90;;;;;;4984627;28;20144;-65
2021/04/09 04:13:50;;;;;;;29.15;18.42;;;4.20;99.90;;;;;;4997027;28;20043;-63
2021/04/09 04:16:17;;;;;;;25.00;17.33;;;4.20;99.90;;;;;;4982398;28;20097;-67
2021/04/09 04:18:44;;;;;;;28.65;19.05;;;4.20;99.90;;;;;;4984037;28;20054;-66
2021/04/09 04:21:10;;;;;;;27.13;19.55;;;4.10;99.90;;;;;;4984560;28;20051;-64
2021/04/09 04:23:36;;;;;;;23.42;17.17;;;4.10;99.90;;;;;;4982671;28;20055;-65
2021/04/09 04:26:03;;;;;;;30.60;20.48;;;4.10;99.90;;;;;;4985115;28;21809;-63
2021/04/09 04:28:31;;;;;;;28.08;20.13;;;4.10;99.90;;;;;;4981994;28;20046;-64
2021/04/09 04:30:58;;;;;;;29.08;18.30;;;4.10;99.90;;;;;;4984226;28;20054;-69
2021/04/09 04:33:25;;;;;;;25.38;18.05;;;4.10;99.90;;;;;;4982959;28;20046;-66
2021/04/09 04:35:52;;;;;;;29.30;19.42;;;4.20;99.90;;;;;;4984201;28;20066;-65
2021/04/09 04:38:20;;;;;;;30.60;19.73;;;4.10;99.90;;;;;;4980114;28;20209;-68
2021/04/09 04:40:47;;;;;;;29.80;20.45;;;4.10;99.90;;;;;;4984628;28;20393;-64
2021/04/09 04:43:14;;;;;;;26.05;17.83;;;4.10;99.90;;;;;;4982248;28;20653;-68
2021/04/09 04:45:41;;;;;;;31.73;19.92;;;4.10;99.90;;;;;;4984038;28;20050;-67
2021/04/09 04:48:08;;;;;;;28.65;21.00;;;4.10;99.90;;;;;;4981456;28;20050;-69
2021/04/09 04:50:35;;;;;;;34.10;20.98;;;4.10;99.90;;;;;;4983732;28;20056;-67
2021/04/09 04:53:02;;;;;;;31.63;22.08;;;4.10;99.90;;;;;;4982904;28;20054;-71
2021/04/09 04:55:30;;;;;;;38.65;24.70;;;4.10;99.90;;;;;;4982969;28;20446;-70
2021/04/09 04:57:57;;;;;;;31.13;21.27;;;4.10;99.90;;;;;;4983334;28;20778;-65
2021/04/09 05:00:24;;;;;;;45.97;24.65;;;4.10;99.90;;;;;;4981641;28;20061;-66
2021/04/09 05:02:50;;;;;;;37.10;23.33;;;4.10;99.90;;;;;;4981893;28;20046;-64
2021/04/09 05:05:17;;;;;;;30.92;25.45;;;4.10;99.90;;;;;;4982207;28;20057;-67
2021/04/09 05:07:44;;;;;;;35.47;24.88;;;4.10;99.90;;;;;;4982387;28;20058;-69
2021/04/09 05:10:11;;;;;;;38.47;24.48;;;4.20;99.90;;;;;;4981023;28;20157;-66
2021/04/09 05:12:38;;;;;;;33.45;24.52;;;4.20;99.90;;;;;;4984529;28;20062;-66
2021/04/09 05:15:05;;;;;;;36.25;25.42;;;4.20;99.90;;;;;;4981452;28;20412;-67
2021/04/09 05:17:32;;;;;;;40.25;26.38;;;4.20;99.90;;;;;;4984034;28;20046;-68
2021/04/09 05:19:58;;;;;;;41.22;29.58;;;4.20;99.90;;;;;;4981153;28;20736;-69
2021/04/09 05:22:25;;;;;;;41.72;29.25;;;4.20;99.90;;;;;;4982470;28;20054;-67
2021/04/09 05:24:51;;;;;;;39.35;26.17;;;4.20;99.90;;;;;;4977779;28;20102;-70
2021/04/09 05:27:18;;;;;;;37.28;27.52;;;4.20;99.90;;;;;;4984876;28;20054;-66
2021/04/09 05:29:45;;;;;;;39.90;25.83;;;4.30;99.90;;;;;;4981511;28;20046;-66
2021/04/09 05:32:12;;;;;;;42.45;28.45;;;4.30;99.90;;;;;;4981985;28;20070;-64
2021/04/09 05:34:39;;;;;;;40.85;27.65;;;4.30;99.90;;;;;;4981889;28;20057;-66
2021/04/09 05:37:06;;;;;;;41.90;28.40;;;4.30;99.90;;;;;;4983962;28;20416;-70
2021/04/09 05:39:35;;;;;;;41.95;28.05;;;4.30;99.90;;;;;;4978354;28;20506;-66
2021/04/09 05:42:02;;;;;;;44.88;29.40;;;4.30;99.90;;;;;;4983284;28;20144;-65
2021/04/09 05:44:30;;;;;;;44.65;29.50;;;4.30;99.90;;;;;;4979398;28;20093;-65
2021/04/09 05:47:04;;;;;;;42.30;28.35;;;4.30;99.90;;;;;;4981529;28;20065;-66
2021/04/09 05:49:32;;;;;;;44.72;29.55;;;4.30;99.90;;;;;;4982414;28;20449;-70
2021/04/09 05:52:02;;;;;;;39.90;27.88;;;4.30;99.90;;;;;;4981714;28;20051;-67
2021/04/09 05:54:28;;;;;;;39.67;28.77;;;4.30;99.90;;;;;;4980056;28;20038;-64
2021/04/09 05:56:55;;;;;;;42.85;27.52;;;4.40;99.90;;;;;;4982266;28;20120;-66
2021/04/09 05:59:21;;;;;;;52.30;29.17;;;4.30;99.90;;;;;;4984066;28;20053;-66
2021/04/09 06:01:48;;;;;;;41.25;28.98;;;4.40;99.90;;;;;;4982341;28;21372;-68
2021/04/09 06:04:15;;;;;;;47.53;29.83;;;4.40;99.90;;;;;;4980748;28;20169;-67
2021/04/09 06:06:42;;;;;;;45.08;27.17;;;4.40;99.90;;;;;;4982214;28;20046;-65
2021/04/09 06:09:09;;;;;;;42.90;26.77;;;4.40;99.90;;;;;;4981228;28;20491;-67
2021/04/09 06:11:35;;;;;;;46.20;28.20;;;4.40;99.90;;;;;;4982673;28;20057;-66
2021/04/09 06:14:02;;;;;;;43.42;28.80;;;4.50;99.90;;;;;;4980498;28;20053;-69
2021/04/09 06:16:28;;;;;;;38.92;26.75;;;4.50;99.90;;;;;;4979201;28;20445;-67
2021/04/09 06:18:56;;;;;;;40.22;25.00;;;4.50;99.90;;;;;;4979036;28;20062;-68
2021/04/09 06:21:23;;;;;;;46.15;28.10;;;4.50;99.90;;;;;;4982570;28;20460;-66
2021/04/09 06:23:49;;;;;;;43.92;25.02;;;4.50;99.90;;;;;;4981995;28;20070;-64
2021/04/09 06:26:15;;;;;;;43.25;25.58;;;4.50;99.90;;;;;;4979471;28;20053;-67
2021/04/09 06:28:42;;;;;;;39.63;26.70;;;4.50;99.90;;;;;;4981666;28;20046;-69
2021/04/09 06:31:08;;;;;;;37.72;27.40;;;4.50;99.90;;;;;;4982375;28;20475;-65
2021/04/09 06:33:53;;;;;;;42.22;30.42;;;4.40;99.90;;;;;;4982117;28;20048;-66
2021/04/09 06:36:20;;;;;;;50.58;29.70;;;4.50;99.90;;;;;;4979265;28;20058;-64
2021/04/09 06:38:46;;;;;;;43.53;27.08;;;4.50;99.90;;;;;;4981290;28;20073;-65
2021/04/09 06:41:13;;;;;;;42.80;27.73;;;4.50;99.90;;;;;;4982102;28;20420;-64
2021/04/09 06:43:39;;;;;;;42.13;26.63;;;4.50;99.90;;;;;;4969197;28;20074;-69
2021/04/09 06:46:06;;;;;;;46.30;29.85;;;4.50;99.90;;;;;;4959957;28;20508;-70
2021/04/09 06:48:33;;;;;;;41.80;28.65;;;4.50;99.90;;;;;;4980528;28;20547;-67
2021/04/09 06:51:01;;;;;;;47.45;30.25;;;4.60;99.90;;;;;;4980250;28;20050;-65
2021/04/09 06:53:29;;;;;;;50.45;32.03;;;4.60;99.90;;;;;;4981077;28;20046;-68
2021/04/09 06:55:56;;;;;;;45.70;30.00;;;4.70;99.90;;;;;;4981086;28;20057;-69
2021/04/09 06:58:24;;;;;;;44.28;30.42;;;4.70;99.90;;;;;;4980810;28;20058;-66
2021/04/09 07:00:52;;;;;;;47.88;29.88;;;4.70;99.90;;;;;;4979620;28;20513;-67
2021/04/09 07:03:19;;;;;;;42.72;31.52;;;4.70;99.90;;;;;;4980824;28;20123;-66
2021/04/09 07:05:48;;;;;;;50.95;30.85;;;4.70;99.90;;;;;;4985980;28;20070;-67
2021/04/09 07:08:14;;;;;;;43.40;31.08;;;4.60;99.90;;;;;;4979962;28;20066;-66
2021/04/09 07:10:41;;;;;;;48.63;33.30;;;4.70;99.90;;;;;;4980672;28;20504;-68
2021/04/09 07:13:10;;;;;;;42.33;30.17;;;4.70;99.90;;;;;;4981896;28;20408;-69
2021/04/09 07:15:37;;;;;;;44.38;32.50;;;4.70;99.90;;;;;;4980254;28;20612;-64
2021/04/09 07:18:06;;;;;;;43.55;29.45;;;4.70;99.90;;;;;;4981536;28;20050;-68
2021/04/09 07:20:34;;;;;;;48.10;32.85;;;4.70;99.90;;;;;;4975339;28;20074;-66
2021/04/09 07:23:04;;;;;;;51.97;33.50;;;4.70;99.90;;;;;;4981173;28;21420;-68
2021/04/09 07:25:34;;;;;;;47.30;34.22;;;4.70;99.90;;;;;;4977127;28;20046;-67
2021/04/09 07:28:10;;;;;;;51.15;30.92;;;4.70;99.90;;;;;;4984333;28;20064;-65
2021/04/09 07:30:38;;;;;;;43.88;31.10;;;4.70;99.90;;;;;;4978568;28;20405;-65
2021/04/09 07:33:07;;;;;;;49.33;32.80;;;4.70;99.90;;;;;;4985481;28;20054;-65
2021/04/09 07:35:47;;;;;;;54.00;30.63;;;4.70;99.90;;;;;;4983872;28;20069;-64
2021/04/09 07:38:34;;;;;;;42.55;29.67;;;4.70;99.90;;;;;;4983035;28;20049;-65
2021/04/09 07:41:05;;;;;;;42.97;29.13;;;4.80;99.90;;;;;;4983650;28;20046;-70
2021/04/09 07:43:37;;;;;;;45.25;31.40;;;4.80;99.90;;;;;;4999547;28;20049;-68
2021/04/09 07:46:05;;;;;;;45.08;30.40;;;4.80;99.90;;;;;;4983678;28;20077;-68
2021/04/09 07:48:39;;;;;;;44.10;31.25;;;4.90;99.90;;;;;;4962634;28;22111;-67
2021/04/09 07:51:18;;;;;;;56.00;32.42;;;4.90;99.90;;;;;;4963769;28;20148;-64
2021/04/09 07:53:46;;;;;;;46.60;30.65;;;4.90;99.90;;;;;;4977589;28;20070;-65
2021/04/09 07:56:17;;;;;;;48.40;31.98;;;4.90;99.90;;;;;;4965444;28;20050;-68
2021/04/09 07:58:54;;;;;;;47.95;30.73;;;4.90;99.90;;;;;;4984183;28;20049;-67
2021/04/09 08:01:23;;;;;;;46.70;33.70;;;4.90;99.90;;;;;;4981991;28;20336;-65
2021/04/09 08:03:50;;;;;;;49.42;30.73;;;4.90;99.90;;;;;;4983769;28;20412;-64
2021/04/09 08:06:22;;;;;;;48.25;33.00;;;4.90;99.90;;;;;;4981526;28;20054;-65
2021/04/09 08:08:48;;;;;;;45.42;30.90;;;4.90;99.90;;;;;;4983004;28;20057;-65
2021/04/09 08:11:22;;;;;;;48.55;32.00;;;4.90;99.90;;;;;;4982509;28;20069;-66
2021/04/09 08:14:07;;;;;;;41.22;30.58;;;4.90;99.90;;;;;;4984629;28;20113;-70
2021/04/09 08:16:38;;;;;;;42.17;30.90;;;4.90;99.90;;;;;;4980060;28;20610;-66
2021/04/09 08:19:07;;;;;;;51.92;33.38;;;4.90;99.90;;;;;;4983836;28;20053;-67
2021/04/09 08:21:36;;;;;;;44.25;30.38;;;4.90;99.90;;;;;;4983825;28;20136;-66
2021/04/09 08:24:04;;;;;;;46.67;31.98;;;4.90;99.90;;;;;;4982214;28;20050;-65
2021/04/09 08:26:31;;;;;;;40.05;29.70;;;4.90;99.90;;;;;;4981232;28;20057;-65
2021/04/09 08:28:59;;;;;;;48.45;33.05;;;4.90;99.90;;;;;;5000013;28;20669;-68
2021/04/09 08:31:27;;;;;;;46.75;31.08;;;4.90;99.90;;;;;;4983522;28;20418;-65
2021/04/09 08:33:53;;;;;;;46.80;30.65;;;4.90;99.90;;;;;;4982943;28;20289;-64
2021/04/09 08:36:21;;;;;;;55.33;32.38;;;4.90;99.90;;;;;;4981017;28;20100;-64
2021/04/09 08:38:48;;;;;;;46.72;29.10;;;4.90;99.90;;;;;;4981514;28;20114;-66
2021/04/09 08:41:18;;;;;;;47.25;31.25;;;4.90;99.90;;;;;;4983526;28;20053;-70
2021/04/09 08:43:45;;;;;;;52.63;29.90;;;4.90;99.90;;;;;;4980643;28;20051;-67
2021/04/09 08:46:12;;;;;;;51.03;31.38;;;4.90;99.90;;;;;;4980555;28;20097;-64
2021/04/09 08:48:39;;;;;;;49.05;32.03;;;4.90;99.90;;;;;;4982501;28;20053;-64
2021/04/09 08:51:08;;;;;;;47.40;30.65;;;4.90;99.90;;;;;;4982818;28;20058;-70
2021/04/09 08:53:35;;;;;;;46.35;28.98;;;4.90;99.90;;;;;;4996597;28;20499;-64
2021/04/09 08:56:02;;;;;;;42.95;30.38;;;5.00;99.90;;;;;;4984428;28;20129;-65
2021/04/09 08:58:42;;;;;;;48.92;29.00;;;5.00;99.90;;;;;;4981284;28;20053;-65
2021/04/09 09:01:12;;;;;;;39.90;28.55;;;5.00;99.90;;;;;;4983076;28;20125;-69
2021/04/09 09:03:39;;;;;;;46.83;29.27;;;5.00;99.90;;;;;;4983155;28;20058;-68
2021/04/09 09:06:08;;;;;;;41.08;27.50;;;5.00;99.90;;;;;;4982315;28;20130;-66
2021/04/09 09:08:40;;;;;;;46.40;30.35;;;5.00;99.90;;;;;;4980972;28;20057;-66
2021/04/09 09:11:08;;;;;;;40.97;29.73;;;5.00;99.90;;;;;;4981704;28;20073;-68
2021/04/09 09:13:43;;;;;;;41.60;29.70;;;5.10;99.90;;;;;;4982229;28;20054;-68
2021/04/09 09:16:17;;;;;;;51.83;31.17;;;5.10;99.90;;;;;;4981568;28;20058;-69
2021/04/09 09:18:49;;;;;;;42.38;29.75;;;5.20;99.90;;;;;;4982808;28;20061;-64
2021/04/09 09:21:18;;;;;;;42.22;30.30;;;5.20;99.90;;;;;;4981182;28;20074;-66
2021/04/09 09:23:46;;;;;;;44.83;30.35;;;5.20;99.90;;;;;;4982521;28;20479;-66
2021/04/09 09:26:38;;;;;;;47.80;28.70;;;5.30;99.90;;;;;;4982192;28;20058;-70
2021/04/09 09:29:17;;;;;;;42.42;27.90;;;5.30;99.90;;;;;;4982428;28;20042;-65
2021/04/09 09:31:49;;;;;;;47.63;27.75;;;5.40;99.90;;;;;;4983329;28;20077;-67
2021/04/09 09:34:22;;;;;;;43.80;28.50;;;5.40;99.90;;;;;;4980480;28;20053;-66
2021/04/09 09:37:16;;;;;;;37.13;26.98;;;5.40;99.90;;;;;;4984168;28;20149;-68
2021/04/09 09:39:48;;;;;;;39.95;27.75;;;5.40;99.90;;;;;;4982515;28;20046;-64
2021/04/09 09:42:28;;;;;;;44.08;26.60;;;5.30;99.90;;;;;;4979877;28;20045;-70
2021/04/09 09:44:58;;;;;;;41.70;27.15;;;5.30;99.90;;;;;;4983622;28;20034;-65
2021/04/09 09:47:33;;;;;;;45.55;29.55;;;5.40;99.90;;;;;;4977824;28;20057;-66
2021/04/09 09:50:08;;;;;;;39.53;27.25;;;5.40;99.90;;;;;;4982857;28;20046;-68
2021/04/09 09:52:52;;;;;;;43.78;28.25;;;5.50;99.90;;;;;;4979844;28;20053;-67
2021/04/09 09:55:27;;;;;;;42.72;25.85;;;5.40;99.90;;;;;;4982407;28;20046;-65
2021/04/09 09:58:19;;;;;;;47.75;29.33;;;5.30;99.90;;;;;;4979914;28;20427;-67
2021/04/09 10:00:56;;;;;;;41.65;28.00;;;5.30;99.90;;;;;;4979020;28;20054;-67
2021/04/09 10:03:26;;;;;;;41.60;27.23;;;5.30;99.90;;;;;;4980418;28;20054;-64
2021/04/09 10:05:57;;;;;;;44.78;26.48;;;5.40;99.90;;;;;;4982464;28;20058;-69
2021/04/09 10:08:25;;;;;;;43.83;27.80;;;5.40;99.90;;;;;;4978331;28;20050;-69
2021/04/09 10:10:58;;;;;;;43.17;28.17;;;5.40;99.90;;;;;;4983172;28;20456;-66
2021/04/09 10:13:29;;;;;;;50.25;28.30;;;5.50;99.90;;;;;;4978086;28;20053;-66
2021/04/09 10:16:09;;;;;;;35.28;26.92;;;5.40;99.90;;;;;;4980754;28;20049;-65
2021/04/09 10:18:44;;;;;;;48.03;30.50;;;5.50;99.90;;;;;;4979439;28;20159;-65
2021/04/09 10:21:16;;;;;;;39.85;29.10;;;5.40;99.90;;;;;;4981886;28;20495;-66
2021/04/09 10:23:45;;;;;;;36.17;27.90;;;5.50;99.90;;;;;;4980703;28;20455;-65
2021/04/09 10:26:12;;;;;;;40.17;28.48;;;5.40;99.90;;;;;;4982796;28;20442;-64
2021/04/09 10:28:41;;;;;;;46.50;32.08;;;5.40;99.90;;;;;;4980122;28;20354;-64
2021/04/09 10:31:17;;;;;;;44.15;28.40;;;5.40;99.90;;;;;;4995996;28;20509;-67
2021/04/09 10:33:50;;;;;;;38.13;26.00;;;5.40;99.90;;;;;;4979773;28;20057;-64
2021/04/09 10:36:25;;;;;;;32.90;25.60;;;5.30;99.90;;;;;;4978722;28;20046;-69
2021/04/09 10:38:58;;;;;;;32.58;24.23;;;5.30;99.90;;;;;;4980977;28;20046;-68
2021/04/09 10:41:36;;;;;;;30.42;24.90;;;5.40;99.90;;;;;;4980624;28;20050;-68
2021/04/09 10:44:05;;;;;;;49.65;24.63;;;5.40;99.90;;;;;;4982081;28;20132;-67
2021/04/09 10:46:35;;;;;;;35.33;23.40;;;5.40;99.90;;;;;;4979842;28;20055;-64
2021/04/09 10:49:04;;;;;;;42.42;27.05;;;5.50;99.90;;;;;;4981994;28;20047;-64
2021/04/09 10:51:38;;;;;;;38.10;25.37;;;5.60;99.90;;;;;;4980338;28;20873;-66
2021/04/09 10:54:20;;;;;;;40.08;23.25;;;5.50;99.90;;;;;;4980124;28;20292;-65
2021/04/09 10:56:53;;;;;;;38.00;25.08;;;5.50;99.90;;;;;;4980872;28;20049;-68
2021/04/09 10:59:28;;;;;;;35.42;24.92;;;5.50;99.90;;;;;;4982001;28;20061;-65
2021/04/09 11:01:56;;;;;;;34.72;22.90;;;5.50;99.90;;;;;;4986039;28;20054;-69
2021/04/09 11:04:24;;;;;;;41.60;27.33;;;5.60;99.90;;;;;;4983985;28;20088;-66
2021/04/09 11:06:59;;;;;;;31.67;23.20;;;5.60;99.90;;;;;;4985804;28;20054;-67
2021/04/09 11:09:42;;;;;;;33.08;21.20;;;5.60;99.90;;;;;;4984563;28;20046;-67
2021/04/09 11:12:27;;;;;;;32.50;24.52;;;5.60;99.90;;;;;;4985611;28;20069;-68
2021/04/09 11:15:09;;;;;;;34.00;24.13;;;5.60;99.90;;;;;;4982798;28;20500;-64
2021/04/09 11:17:37;;;;;;;43.63;22.27;;;5.60;99.90;;;;;;4985302;28;20179;-66
2021/04/09 11:20:25;;;;;;;35.33;24.48;;;5.60;99.90;;;;;;4984990;28;20046;-64
2021/04/09 11:23:18;;;;;;;33.22;22.70;;;5.70;99.90;;;;;;4983521;28;20057;-64
2021/04/09 11:25:47;;;;;;;33.92;22.13;;;5.80;99.90;;;;;;4983971;28;20088;-62
2021/04/09 11:28:29;;;;;;;34.67;22.83;;;5.90;99.90;;;;;;4983559;28;20153;-66
2021/04/09 11:31:01;;;;;;;35.72;25.83;;;5.90;99.90;;;;;;4984801;28;20052;-65
2021/04/09 11:33:35;;;;;;;33.58;22.48;;;6.00;99.90;;;;;;4983116;28;20672;-65
2021/04/09 11:36:22;;;;;;;35.92;26.27;;;6.10;99.90;;;;;;4985313;28;20046;-66
2021/04/09 11:38:51;;;;;;;33.83;24.48;;;6.30;99.90;;;;;;4981201;28;20077;-68
2021/04/09 11:41:32;;;;;;;31.17;18.80;;;6.40;99.90;;;;;;4986001;28;20046;-64
2021/04/09 11:43:59;;;;;;;29.00;23.00;;;6.60;99.90;;;;;;4983408;28;20292;-67
2021/04/09 11:46:37;;;;;;;38.63;21.20;;;6.80;99.90;;;;;;4982007;28;21060;-65
2021/04/09 11:49:05;;;;;;;34.53;20.73;;;6.90;99.90;;;;;;4983191;28;20512;-66
2021/04/09 11:51:34;;;;;;;27.30;22.58;;;7.00;99.90;;;;;;4982168;28;20109;-64
2021/04/09 11:54:04;;;;;;;30.00;20.25;;;7.00;99.90;;;;;;4982563;28;20515;-63
2021/04/09 11:56:40;;;;;;;31.85;20.33;;;7.00;99.90;;;;;;4982912;28;20050;-63
2021/04/09 11:59:16;;;;;;;29.52;20.58;;;7.10;99.90;;;;;;4983294;28;20073;-63
2021/04/09 12:01:46;;;;;;;27.73;21.63;;;7.20;99.90;;;;;;4984045;28;20058;-64
2021/04/09 12:04:31;;;;;;;28.60;21.30;;;7.20;99.90;;;;;;4996907;28;20050;-67
2021/04/09 12:06:58;;;;;;;37.30;23.33;;;7.10;99.90;;;;;;4980544;28;20880;-65
2021/04/09 12:09:25;;;;;;;30.40;21.38;;;7.20;99.90;;;;;;4983890;28;20058;-64
2021/04/09 12:11:51;;;;;;;29.52;21.70;;;7.30;99.90;;;;;;4985723;28;20132;-67
2021/04/09 12:14:35;;;;;;;30.67;22.08;;;7.40;99.90;;;;;;4980799;28;20054;-65
2021/04/09 12:17:04;;;;;;;35.15;19.48;;;7.40;99.90;;;;;;4982910;28;20054;-64
2021/04/09 12:19:31;;;;;;;25.15;19.67;;;7.40;99.90;;;;;;4984577;28;20377;-65
2021/04/09 12:21:58;;;;;;;28.40;18.27;;;7.60;99.90;;;;;;4983024;28;20420;-68
2021/04/09 12:24:25;;;;;;;30.67;19.27;;;7.60;99.90;;;;;;4979185;28;20050;-64
2021/04/09 12:26:51;;;;;;;28.23;19.98;;;7.50;99.90;;;;;;4984505;28;20042;-63
2021/04/09 12:29:18;;;;;;;30.83;18.67;;;7.50;99.90;;;;;;4983282;28;20062;-66
2021/04/09 12:31:44;;;;;;;33.10;22.85;;;7.60;99.90;;;;;;4982418;28;20050;-67
2021/04/09 12:34:12;;;;;;;26.27;18.65;;;7.50;99.90;;;;;;4981236;28;20054;-65
2021/04/09 12:36:39;;;;;;;25.95;19.30;;;7.50;99.90;;;;;;4982894;28;20392;-69
2021/04/09 12:39:08;;;;;;;24.45;20.20;;;7.60;99.90;;;;;;4980683;28;20042;-66
2021/04/09 12:41:35;;;;;;;30.73;18.92;;;7.60;99.90;;;;;;4982570;28;20158;-64
2021/04/09 12:44:04;;;;;;;27.98;19.73;;;7.70;99.90;;;;;;4982579;28;20088;-65
2021/04/09 12:46:31;;;;;;;25.25;18.40;;;7.80;99.90;;;;;;4982356;28;20046;-67
2021/04/09 12:48:59;;;;;;;23.70;19.23;;;7.70;99.90;;;;;;4982270;28;20046;-69
2021/04/09 12:51:26;;;;;;;27.80;18.77;;;7.70;99.90;;;;;;4982232;28;20046;-67
2021/04/09 12:53:53;;;;;;;28.52;18.67;;;7.80;99.90;;;;;;4996618;28;20046;-67